createdAt,value
2022-09-26T00:01:41.834Z,46.50
2022-09-26T00:04:15.829Z,54.03
2022-09-26T00:06:44.211Z,45.38
2022-09-26T00:09:13.168Z,55.90
2022-09-26T00:11:42.181Z,49.95
2022-09-26T00:14:15.333Z,52.53
2022-09-26T00:16:43.846Z,56.22
2022-09-26T00:19:14.554Z,49.85
2022-09-26T00:21:43.036Z,55.72
2022-09-26T00:24:11.517Z,55.72
2022-09-26T00:26:40.266Z,56.65
2022-09-26T00:29:10.771Z,52.33
2022-09-26T00:31:42.429Z,52.83
2022-09-26T00:34:17.580Z,49.85
2022-09-26T00:36:46.016Z,49.75
2022-09-26T00:39:16.283Z,53.58
2022-09-26T00:41:45.443Z,46.67
2022-09-26T00:44:42.367Z,48.75
2022-09-26T00:47:23.538Z,50.97
2022-09-26T00:49:56.941Z,53.03
2022-09-26T00:52:28.194Z,54.63
2022-09-26T00:54:59.932Z,48.55
2022-09-26T00:57:34.675Z,46.67
2022-09-26T01:00:07.746Z,49.83
2022-09-26T01:02:36.409Z,47.60
2022-09-26T01:05:08.301Z,51.20
2022-09-26T01:07:37.118Z,46.08
2022-09-26T01:10:06.353Z,51.75
2022-09-26T01:12:37.430Z,47.00
2022-09-26T01:15:09.176Z,49.97
2022-09-26T01:17:39.002Z,43.58
2022-09-26T01:20:30.200Z,45.88
2022-09-26T01:23:41.815Z,47.47
2022-09-26T01:26:57.074Z,51.30
2022-09-26T01:30:01.178Z,44.78
2022-09-26T01:32:49.835Z,45.80
2022-09-26T01:35:32.041Z,47.65
2022-09-26T01:38:12.505Z,47.53
2022-09-26T01:40:46.348Z,46.70
2022-09-26T01:43:23.256Z,41.13
2022-09-26T01:45:55.208Z,44.05
2022-09-26T01:48:33.525Z,49.55
2022-09-26T01:51:09.407Z,42.63
2022-09-26T01:53:44.407Z,45.47
2022-09-26T01:56:18.696Z,45.15
2022-09-26T01:58:51.250Z,48.80
2022-09-26T02:01:22.858Z,40.80
2022-09-26T02:03:56.651Z,47.97
2022-09-26T02:06:31.942Z,44.72
2022-09-26T02:09:03.732Z,43.65
2022-09-26T02:11:32.217Z,47.55
2022-09-26T02:14:04.967Z,48.38
2022-09-26T02:16:38.521Z,46.03
2022-09-26T02:19:15.884Z,44.30
2022-09-26T02:21:45.352Z,46.47
2022-09-26T02:24:13.800Z,42.05
2022-09-26T02:26:43.407Z,46.13
2022-09-26T02:29:14.073Z,45.90
2022-09-26T02:31:49.257Z,45.95
2022-09-26T02:34:19.004Z,46.42
2022-09-26T02:36:47.457Z,42.70
2022-09-26T02:39:15.949Z,42.92
2022-09-26T02:42:09.140Z,42.38
2022-09-26T02:44:54.289Z,43.65
2022-09-26T02:47:42.570Z,41.47
2022-09-26T02:50:26.800Z,48.10
2022-09-26T02:53:04.737Z,44.55
2022-09-26T02:55:50.436Z,47.08
2022-09-26T02:58:23.726Z,46.85
2022-09-26T03:01:01.351Z,45.67
2022-09-26T03:03:34.998Z,45.47
2022-09-26T03:06:08.482Z,50.25
2022-09-26T03:08:40.653Z,48.60
2022-09-26T03:11:12.057Z,48.80
2022-09-26T03:13:42.803Z,46.83
2022-09-26T03:16:12.552Z,44.70
2022-09-26T03:18:46.774Z,48.72
2022-09-26T03:21:16.736Z,50.42
2022-09-26T03:23:45.205Z,45.40
2022-09-26T03:26:16.994Z,47.60
2022-09-26T03:28:56.328Z,48.42
2022-09-26T03:31:27.275Z,50.70
2022-09-26T03:34:01.783Z,46.55
2022-09-26T03:36:32.589Z,52.10
2022-09-26T03:39:03.147Z,51.35
2022-09-26T03:41:56.559Z,52.15
2022-09-26T03:44:27.553Z,51.70
2022-09-26T03:47:14.431Z,46.65
2022-09-26T03:49:45.242Z,50.70
2022-09-26T03:52:15.831Z,54.55
2022-09-26T03:54:45.431Z,48.00
2022-09-26T03:57:13.946Z,49.97
2022-09-26T03:59:49.825Z,49.42
2022-09-26T04:02:19.977Z,46.67
2022-09-26T04:04:53.284Z,49.20
2022-09-26T04:07:23.721Z,49.17
2022-09-26T04:09:52.134Z,49.53
2022-09-26T04:12:22.069Z,49.63
2022-09-26T04:14:50.984Z,48.33
2022-09-26T04:17:20.291Z,48.03
2022-09-26T04:19:49.285Z,48.17
2022-09-26T04:22:17.622Z,50.47
2022-09-26T04:24:47.523Z,51.92
2022-09-26T04:27:17.166Z,45.22
2022-09-26T04:29:47.407Z,47.65
2022-09-26T04:32:36.806Z,52.17
2022-09-26T04:35:33.270Z,53.20
2022-09-26T04:38:01.555Z,52.00
2022-09-26T04:40:32.566Z,56.50
2022-09-26T04:43:05.781Z,53.65
2022-09-26T04:45:34.075Z,52.72
2022-09-26T04:48:03.734Z,50.65
2022-09-26T04:50:50.411Z,49.13
2022-09-26T04:53:19.456Z,52.40
2022-09-26T04:56:02.425Z,56.03
2022-09-26T04:58:32.649Z,53.25
2022-09-26T05:01:04.152Z,55.17
2022-09-26T05:03:45.277Z,54.97
2022-09-26T05:06:14.864Z,62.78
2022-09-26T05:08:46.515Z,57.70
2022-09-26T05:11:18.795Z,54.28
2022-09-26T05:13:53.122Z,55.45
2022-09-26T05:16:22.693Z,54.03
2022-09-26T05:18:53.685Z,49.17
2022-09-26T05:21:21.993Z,53.55
2022-09-26T05:24:07.638Z,56.28
2022-09-26T05:26:42.842Z,49.75
2022-09-26T05:29:12.701Z,50.92
2022-09-26T05:31:48.036Z,54.20
2022-09-26T05:34:20.122Z,64.82
2022-09-26T05:36:48.901Z,60.92
2022-09-26T05:39:36.779Z,69.45
2022-09-26T05:42:09.251Z,58.33
2022-09-26T05:44:39.731Z,57.53
2022-09-26T05:47:08.646Z,57.30
2022-09-26T05:49:38.395Z,64.97
2022-09-26T05:52:06.938Z,63.58
2022-09-26T05:54:35.273Z,59.03
2022-09-26T05:57:13.602Z,70.22
2022-09-26T05:59:48.385Z,61.17
2022-09-26T06:02:26.067Z,58.72
2022-09-26T06:05:06.017Z,74.03
2022-09-26T06:07:40.148Z,64.97
2022-09-26T06:10:13.403Z,61.75
2022-09-26T06:12:50.799Z,70.60
2022-09-26T06:15:19.590Z,61.45
2022-09-26T06:17:48.269Z,68.00
2022-09-26T06:20:17.311Z,68.80
2022-09-26T06:22:45.498Z,57.35
2022-09-26T06:25:14.651Z,66.10
2022-09-26T06:27:43.924Z,66.15
2022-09-26T06:30:14.737Z,62.70
2022-09-26T06:32:44.251Z,70.53
2022-09-26T06:35:41.795Z,68.22
2022-09-26T06:38:23.667Z,69.30
2022-09-26T06:40:52.955Z,54.42
2022-09-26T06:43:22.479Z,53.70
2022-09-26T06:46:31.341Z,48.88
2022-09-26T06:49:13.111Z,44.65
2022-09-26T06:52:02.910Z,45.35
2022-09-26T06:54:31.491Z,62.92
2022-09-26T06:56:59.756Z,48.33
2022-09-26T06:59:28.560Z,47.85
2022-09-26T07:02:10.242Z,66.50
2022-09-26T07:05:02.808Z,67.13
2022-09-26T07:07:43.322Z,66.03
2022-09-26T07:10:20.321Z,73.60
2022-09-26T07:13:07.526Z,70.97
2022-09-26T07:15:37.585Z,66.10
2022-09-26T07:18:29.845Z,65.68
2022-09-26T07:21:06.068Z,68.70
2022-09-26T07:23:57.061Z,85.78
2022-09-26T07:26:25.773Z,83.85
2022-09-26T07:28:55.087Z,73.53
2022-09-26T07:31:26.323Z,71.93
2022-09-26T07:34:08.990Z,81.60
2022-09-26T07:36:40.858Z,71.88
2022-09-26T07:39:11.399Z,66.25
2022-09-26T07:41:40.917Z,59.40
2022-09-26T07:47:15.248Z,63.03
2022-09-26T07:50:02.993Z,69.85
2022-09-26T07:52:56.005Z,62.78
2022-09-26T07:56:04.499Z,51.13
2022-09-26T07:58:53.505Z,59.95
2022-09-26T08:01:40.131Z,60.38
2022-09-26T08:04:32.101Z,58.95
2022-09-26T08:07:02.771Z,52.08
2022-09-26T08:09:33.188Z,49.70
2022-09-26T08:12:28.135Z,43.85
2022-09-26T08:15:09.999Z,40.65
2022-09-26T08:17:44.326Z,38.53
2022-09-26T08:20:12.899Z,37.38
2022-09-26T08:22:42.716Z,50.10
2022-09-26T08:25:13.578Z,36.53
2022-09-26T08:27:51.962Z,34.53
2022-09-26T08:30:21.801Z,35.22
2022-09-26T08:32:54.318Z,26.35
2022-09-26T08:35:22.841Z,28.77
2022-09-26T08:38:10.722Z,42.42
2022-09-26T08:40:54.031Z,35.78
2022-09-26T08:43:52.988Z,36.10
2022-09-26T08:47:01.021Z,32.28
2022-09-26T08:49:49.088Z,30.02
2022-09-26T08:52:33.467Z,36.47
2022-09-26T08:55:22.121Z,34.42
2022-09-26T08:57:57.074Z,27.25
2022-09-26T09:00:28.319Z,28.90
2022-09-26T09:03:12.423Z,33.67
2022-09-26T09:05:46.447Z,32.92
2022-09-26T09:08:21.922Z,26.23
2022-09-26T09:11:22.106Z,24.48
2022-09-26T09:14:05.445Z,30.45
2022-09-26T09:17:04.153Z,28.55
2022-09-26T09:20:16.222Z,19.40
2022-09-26T09:23:26.180Z,22.58
2022-09-26T09:29:19.767Z,21.02
2022-09-26T09:32:12.361Z,21.52
2022-09-26T09:34:58.997Z,26.85
2022-09-26T09:37:48.681Z,23.15
2022-09-26T09:40:41.286Z,21.35
2022-09-26T09:43:26.901Z,27.60
2022-09-26T09:46:05.387Z,32.33
2022-09-26T09:48:34.312Z,27.00
2022-09-26T09:51:19.321Z,29.35
2022-09-26T09:54:02.265Z,20.10
2022-09-26T09:56:39.785Z,18.58
2022-09-26T09:59:32.221Z,21.35
2022-09-26T10:02:19.020Z,20.27
2022-09-26T10:04:56.804Z,16.52
2022-09-26T10:07:25.252Z,12.15
2022-09-26T10:10:29.416Z,9.50
2022-09-26T10:13:17.958Z,17.35
2022-09-26T10:16:08.163Z,15.05
2022-09-26T10:19:18.447Z,16.17
2022-09-26T10:21:50.561Z,15.15
2022-09-26T10:24:34.208Z,12.02
2022-09-26T10:27:22.558Z,11.07
2022-09-26T10:29:58.943Z,15.43
2022-09-26T10:32:29.120Z,15.60
2022-09-26T10:35:25.682Z,15.80
2022-09-26T10:38:01.196Z,19.20
2022-09-26T10:40:46.230Z,16.00
2022-09-26T10:43:24.933Z,15.40
2022-09-26T10:46:03.509Z,15.45
2022-09-26T10:49:07.346Z,12.25
2022-09-26T10:52:08.570Z,14.73
2022-09-26T10:54:45.782Z,12.90
2022-09-26T10:57:24.358Z,14.60
2022-09-26T10:59:57.992Z,14.18
2022-09-26T11:02:27.502Z,13.88
2022-09-26T11:05:16.985Z,15.13
2022-09-26T11:08:10.606Z,21.13
2022-09-26T11:10:48.923Z,12.82
2022-09-26T11:13:25.121Z,14.98
2022-09-26T11:16:01.642Z,15.00
2022-09-26T11:18:40.904Z,16.92
2022-09-26T11:21:28.355Z,15.77
2022-09-26T11:24:04.899Z,14.20
2022-09-26T11:26:37.355Z,17.70
2022-09-26T11:29:17.921Z,21.92
2022-09-26T11:32:19.463Z,15.57
2022-09-26T11:35:27.031Z,16.48
2022-09-26T11:38:11.218Z,15.77
2022-09-26T11:40:57.087Z,13.88
2022-09-26T11:43:49.077Z,23.02
2022-09-26T11:46:47.728Z,14.27
2022-09-26T11:49:57.143Z,15.38
2022-09-26T11:53:01.499Z,11.38
2022-09-26T11:55:44.961Z,12.10
2022-09-26T11:58:40.323Z,13.60
2022-09-26T12:01:19.920Z,10.88
2022-09-26T12:04:15.719Z,10.43
2022-09-26T12:06:56.342Z,10.48
2022-09-26T12:09:47.679Z,10.95
2022-09-26T12:12:54.652Z,12.80
2022-09-26T12:15:35.130Z,10.88
2022-09-26T12:18:13.866Z,12.98
2022-09-26T12:21:01.818Z,9.48
2022-09-26T12:23:37.813Z,11.00
2022-09-26T12:26:29.300Z,11.85
2022-09-26T12:29:32.521Z,16.83
2022-09-26T12:32:23.937Z,10.07
2022-09-26T12:35:08.288Z,10.40
2022-09-26T12:38:02.399Z,8.57
2022-09-26T12:40:41.047Z,10.68
2022-09-26T12:43:55.693Z,10.75
2022-09-26T12:46:50.256Z,11.30
2022-09-26T12:50:03.191Z,9.82
2022-09-26T12:52:45.301Z,10.63
2022-09-26T12:55:30.005Z,9.73
2022-09-26T12:58:12.297Z,11.57
2022-09-26T13:01:06.601Z,13.73
2022-09-26T13:03:56.754Z,10.25
2022-09-26T13:07:17.856Z,10.95
2022-09-26T13:10:28.553Z,16.02
2022-09-26T13:13:39.631Z,10.10
2022-09-26T13:16:27.661Z,11.63
2022-09-26T13:19:01.533Z,10.05
2022-09-26T13:21:44.203Z,16.02
2022-09-26T13:24:35.094Z,14.00
2022-09-26T13:27:36.294Z,15.13
2022-09-26T13:30:11.924Z,11.52
2022-09-26T13:33:24.611Z,10.48
2022-09-26T13:35:56.299Z,13.45
2022-09-26T13:38:58.085Z,13.73
2022-09-26T13:41:44.182Z,11.60
2022-09-26T13:48:41.553Z,13.48
2022-09-26T13:51:23.809Z,20.45
2022-09-26T13:54:32.401Z,11.50
2022-09-26T13:57:48.384Z,10.93
2022-09-26T14:00:57.767Z,10.73
2022-09-26T14:03:44.882Z,14.07
2022-09-26T14:07:31.925Z,12.50
2022-09-26T14:10:36.573Z,12.30
2022-09-26T14:13:20.277Z,10.25
2022-09-26T14:16:34.756Z,11.23
2022-09-26T14:19:09.579Z,10.88
2022-09-26T14:22:10.794Z,11.40
2022-09-26T14:24:43.813Z,13.30
2022-09-26T14:27:42.568Z,10.82
2022-09-26T14:30:55.152Z,13.07
2022-09-26T14:36:36.820Z,22.63
2022-09-26T14:39:22.910Z,22.60
2022-09-26T14:41:51.873Z,40.47
2022-09-26T14:48:37.163Z,19.02
2022-09-26T14:51:35.618Z,17.75
2022-09-26T14:54:39.598Z,15.10
2022-09-26T15:01:56.164Z,13.55
2022-09-26T15:05:05.866Z,13.98
2022-09-26T15:08:20.432Z,11.40
2022-09-26T15:14:14.989Z,13.82
2022-09-26T15:20:39.751Z,18.23
2022-09-26T15:23:58.934Z,15.32
2022-09-26T15:33:39.727Z,15.05
2022-09-26T15:37:26.721Z,12.30
2022-09-26T15:44:25.447Z,18.23
2022-09-26T15:47:44.701Z,13.43
2022-09-26T15:50:47.762Z,13.52
2022-09-26T15:53:25.397Z,11.05
2022-09-26T15:55:59.738Z,14.82
2022-09-26T15:58:35.089Z,11.02
2022-09-26T16:01:06.006Z,10.38
2022-09-26T16:03:45.882Z,12.77
2022-09-26T16:06:35.079Z,10.35
2022-09-26T16:09:09.888Z,12.18
2022-09-26T16:11:47.593Z,10.75
2022-09-26T16:14:26.909Z,13.95
2022-09-26T16:17:03.922Z,10.68
2022-09-26T16:19:36.370Z,12.23
2022-09-26T16:22:24.182Z,11.32
2022-09-26T16:24:52.630Z,12.50
2022-09-26T16:27:25.939Z,12.45
2022-09-26T16:29:54.323Z,14.75
2022-09-26T16:32:24.615Z,13.93
2022-09-26T16:34:53.171Z,15.05
2022-09-26T16:37:23.596Z,16.27
2022-09-26T16:39:57.173Z,21.02
2022-09-26T16:42:33.448Z,16.45
2022-09-26T16:45:05.840Z,18.42
2022-09-26T16:47:42.755Z,17.80
2022-09-26T16:50:28.946Z,20.13
2022-09-26T16:52:57.617Z,17.38
2022-09-26T16:55:27.311Z,20.88
2022-09-26T16:57:58.113Z,19.75
2022-09-26T17:00:49.960Z,20.48
2022-09-26T17:03:24.093Z,22.67
2022-09-26T17:05:54.310Z,26.35
2022-09-26T17:08:23.173Z,27.92
2022-09-26T17:10:51.718Z,25.45
2022-09-26T17:13:22.832Z,24.70
2022-09-26T17:15:54.810Z,26.77
2022-09-26T17:18:29.075Z,26.13
2022-09-26T17:20:59.175Z,28.25
2022-09-26T17:23:42.755Z,28.75
2022-09-26T17:26:19.607Z,28.30
2022-09-26T17:28:48.474Z,30.60
2022-09-26T17:31:20.106Z,30.67
2022-09-26T17:33:53.381Z,26.10
2022-09-26T17:36:25.131Z,25.65
2022-09-26T17:38:54.673Z,30.23
2022-09-26T17:41:29.714Z,28.23
2022-09-26T17:44:00.323Z,24.30
2022-09-26T17:46:29.162Z,30.95
2022-09-26T17:48:59.350Z,25.98
2022-09-26T17:51:27.699Z,29.02
2022-09-26T17:53:57.513Z,29.35
2022-09-26T17:56:26.676Z,26.85
2022-09-26T17:58:55.729Z,33.20
2022-09-26T18:01:26.750Z,31.08
2022-09-26T18:04:00.993Z,35.00
2022-09-26T18:06:33.051Z,30.45
2022-09-26T18:09:07.649Z,35.60
2022-09-26T18:11:37.398Z,33.33
2022-09-26T18:14:08.072Z,34.72
2022-09-26T18:16:36.443Z,34.63
2022-09-26T18:19:07.922Z,35.85
2022-09-26T18:21:36.498Z,34.97
2022-09-26T18:24:06.875Z,34.92
2022-09-26T18:26:37.937Z,41.10
2022-09-26T18:29:08.247Z,36.65
2022-09-26T18:31:41.092Z,36.50
2022-09-26T18:34:16.494Z,39.08
2022-09-26T18:36:44.958Z,36.90
2022-09-26T18:39:13.379Z,37.05
2022-09-26T18:41:42.038Z,37.22
2022-09-26T18:44:16.107Z,40.60
2022-09-26T18:46:47.046Z,41.00
2022-09-26T18:49:17.827Z,40.70
2022-09-26T18:51:46.945Z,39.53
2022-09-26T18:54:17.741Z,37.53
2022-09-26T18:57:03.625Z,41.30
2022-09-26T18:59:32.163Z,44.40
2022-09-26T19:02:02.665Z,45.60
2022-09-26T19:04:33.955Z,38.60
2022-09-26T19:07:07.021Z,42.40
2022-09-26T19:09:36.787Z,43.63
2022-09-26T19:12:05.447Z,47.95
2022-09-26T19:14:33.840Z,40.95
2022-09-26T19:17:02.160Z,43.15
2022-09-26T19:19:32.444Z,43.05
2022-09-26T19:22:08.202Z,40.80
2022-09-26T19:24:40.801Z,38.38
2022-09-26T19:27:14.982Z,42.53
2022-09-26T19:29:46.743Z,47.80
2022-09-26T19:32:21.667Z,40.08
2022-09-26T19:34:53.558Z,39.55
2022-09-26T19:37:23.342Z,43.25
2022-09-26T19:39:51.697Z,38.63
2022-09-26T19:42:20.063Z,38.95
2022-09-26T19:44:49.492Z,40.42
2022-09-26T19:47:20.066Z,44.83
2022-09-26T19:49:49.760Z,41.88
2022-09-26T19:52:20.421Z,37.03
2022-09-26T19:54:50.372Z,38.70
2022-09-26T19:57:20.142Z,44.97
2022-09-26T19:59:48.986Z,38.50
2022-09-26T20:02:18.996Z,40.67
2022-09-26T20:04:47.619Z,33.97
2022-09-26T20:07:18.205Z,37.70
2022-09-26T20:09:47.148Z,30.17
2022-09-26T20:12:16.875Z,33.33
2022-09-26T20:14:45.146Z,30.08
2022-09-26T20:17:21.178Z,26.30
2022-09-26T20:19:50.261Z,30.08
2022-09-26T20:22:22.097Z,30.58
2022-09-26T20:24:54.931Z,23.02
2022-09-26T20:27:27.604Z,23.63
2022-09-26T20:30:13.774Z,21.98
2022-09-26T20:32:42.329Z,24.20
2022-09-26T20:35:14.829Z,23.40
2022-09-26T20:37:43.855Z,27.05
2022-09-26T20:40:18.111Z,27.65
2022-09-26T20:42:51.244Z,25.52
2022-09-26T20:45:26.820Z,25.98
2022-09-26T20:47:55.245Z,29.45
2022-09-26T20:50:23.632Z,30.85
2022-09-26T20:52:53.025Z,30.25
2022-09-26T20:55:21.433Z,32.70
2022-09-26T20:57:51.522Z,34.47
2022-09-26T21:00:22.739Z,35.47
2022-09-26T21:02:52.935Z,38.38
2022-09-26T21:05:24.773Z,34.70
2022-09-26T21:07:53.697Z,33.47
2022-09-26T21:10:24.221Z,32.80
2022-09-26T21:12:54.490Z,38.20
2022-09-26T21:15:24.196Z,39.53
2022-09-26T21:17:53.801Z,32.00
2022-09-26T21:20:25.839Z,36.08
2022-09-26T21:23:11.836Z,35.15
2022-09-26T21:25:40.167Z,36.25
2022-09-26T21:28:22.159Z,34.50
2022-09-26T21:30:51.106Z,36.55
2022-09-26T21:33:21.832Z,32.20
2022-09-26T21:35:51.194Z,36.15
2022-09-26T21:38:21.624Z,33.47
2022-09-26T21:40:53.303Z,37.53
2022-09-26T21:43:26.916Z,32.90
2022-09-26T21:45:55.380Z,33.83
2022-09-26T21:48:23.806Z,37.42
2022-09-26T21:50:58.383Z,38.92
2022-09-26T21:53:32.993Z,36.45
2022-09-26T21:56:07.487Z,36.20
2022-09-26T21:58:41.280Z,37.03
2022-09-26T22:01:09.761Z,36.10
2022-09-26T22:03:38.149Z,36.95
2022-09-26T22:06:09.309Z,34.17
2022-09-26T22:08:38.295Z,37.08
2022-09-26T22:11:08.750Z,36.47
2022-09-26T22:13:39.052Z,40.80
2022-09-26T22:16:08.320Z,41.65
2022-09-26T22:18:37.276Z,38.05
2022-09-26T22:21:06.127Z,37.28
2022-09-26T22:23:35.357Z,39.88
2022-09-26T22:26:04.542Z,38.45
2022-09-26T22:28:32.906Z,36.92
2022-09-26T22:31:04.352Z,40.10
2022-09-26T22:33:33.242Z,41.15
2022-09-26T22:36:01.792Z,40.22
2022-09-26T22:38:30.221Z,41.75
2022-09-26T22:40:59.865Z,41.55
2022-09-26T22:43:28.849Z,47.83
2022-09-26T22:46:04.783Z,51.60
2022-09-26T22:48:34.287Z,44.70
2022-09-26T22:51:02.960Z,46.33
2022-09-26T22:53:32.589Z,52.17
2022-09-26T22:56:05.334Z,48.40
2022-09-26T22:58:36.720Z,45.92
2022-09-26T23:01:08.855Z,48.15
2022-09-26T23:03:37.598Z,51.55
2022-09-26T23:06:06.401Z,45.70
2022-09-26T23:08:35.558Z,48.95
2022-09-26T23:11:04.776Z,52.45
2022-09-26T23:13:35.529Z,50.85
2022-09-26T23:16:10.155Z,54.08
2022-09-26T23:18:39.474Z,49.85
2022-09-26T23:21:09.483Z,51.63
2022-09-26T23:23:38.487Z,49.40
2022-09-26T23:26:07.905Z,51.15
2022-09-26T23:28:36.929Z,50.70
2022-09-26T23:31:08.274Z,58.30
2022-09-26T23:33:37.042Z,51.25
2022-09-26T23:36:06.461Z,49.95
2022-09-26T23:38:35.447Z,54.83
2022-09-26T23:41:03.717Z,46.42
2022-09-26T23:43:31.964Z,48.28
2022-09-26T23:46:00.465Z,52.00
2022-09-26T23:48:30.336Z,49.15
2022-09-26T23:50:58.874Z,49.38
2022-09-26T23:53:27.260Z,49.78
2022-09-26T23:56:03.887Z,48.90
2022-09-26T23:58:32.571Z,53.15
